sensor_id;sensor_type;location;lat;lon;timestamp;temperature;humidity
15426;DHT22;7812;50.072;7.036;2023-06-24T00:01:28;14.70;99.90
15426;DHT22;7812;50.072;7.036;2023-06-24T00:03:54;14.70;99.90
15426;DHT22;7812;50.072;7.036;2023-06-24T00:06:20;14.70;99.90
15426;DHT22;7812;50.072;7.036;2023-06-24T00:08:46;14.70;99.90
15426;DHT22;7812;50.072;7.036;2023-06-24T00:11:13;14.60;99.90
15426;DHT22;7812;50.072;7.036;2023-06-24T00:13:40;14.60;99.90
15426;DHT22;7812;50.072;7.036;2023-06-24T00:16:05;14.60;99.90
15426;DHT22;7812;50.072;7.036;2023-06-24T00:18:34;14.60;99.90
15426;DHT22;7812;50.072;7.036;2023-06-24T00:21:00;14.60;99.90
15426;DHT22;7812;50.072;7.036;2023-06-24T00:23:30;14.70;99.90
15426;DHT22;7812;50.072;7.036;2023-06-24T00:26:00;14.70;99.90
15426;DHT22;7812;50.072;7.036;2023-06-24T00:28:26;14.60;99.90
15426;DHT22;7812;50.072;7.036;2023-06-24T00:30:52;14.60;99.90
15426;DHT22;7812;50.072;7.036;2023-06-24T00:33:18;14.50;99.90
15426;DHT22;7812;50.072;7.036;2023-06-24T00:35:47;14.50;99.90
15426;DHT22;7812;50.072;7.036;2023-06-24T00:38:13;14.40;99.90
15426;DHT22;7812;50.072;7.036;2023-06-24T00:40:39;14.40;99.90
15426;DHT22;7812;50.072;7.036;2023-06-24T00:43:06;14.30;99.90
15426;DHT22;7812;50.072;7.036;2023-06-24T00:45:32;14.30;99.90
15426;DHT22;7812;50.072;7.036;2023-06-24T00:48:00;14.30;99.90
15426;DHT22;7812;50.072;7.036;2023-06-24T00:50:27;14.20;99.90
15426;DHT22;7812;50.072;7.036;2023-06-24T00:52:52;14.20;99.90
15426;DHT22;7812;50.072;7.036;2023-06-24T00:55:18;14.20;99.90
15426;DHT22;7812;50.072;7.036;2023-06-24T00:57:49;14.20;99.90
15426;DHT22;7812;50.072;7.036;2023-06-24T01:00:20;14.20;99.90
15426;DHT22;7812;50.072;7.036;2023-06-24T01:02:48;14.10;99.90
15426;DHT22;7812;50.072;7.036;2023-06-24T01:05:14;14.10;99.90
15426;DHT22;7812;50.072;7.036;2023-06-24T01:07:41;14.10;99.90
15426;DHT22;7812;50.072;7.036;2023-06-24T01:10:08;14.10;99.90
15426;DHT22;7812;50.072;7.036;2023-06-24T01:12:38;14.10;99.90
15426;DHT22;7812;50.072;7.036;2023-06-24T01:15:06;14.00;99.90
15426;DHT22;7812;50.072;7.036;2023-06-24T01:17:37;14.00;99.90
15426;DHT22;7812;50.072;7.036;2023-06-24T01:36:12;13.90;99.90
15426;DHT22;7812;50.072;7.036;2023-06-24T01:38:47;13.90;99.90
15426;DHT22;7812;50.072;7.036;2023-06-24T01:41:18;14.00;99.90
15426;DHT22;7812;50.072;7.036;2023-06-24T01:43:44;14.00;99.90
15426;DHT22;7812;50.072;7.036;2023-06-24T01:46:11;14.00;99.90
15426;DHT22;7812;50.072;7.036;2023-06-24T01:48:39;14.00;99.90
15426;DHT22;7812;50.072;7.036;2023-06-24T01:51:10;13.90;99.90
15426;DHT22;7812;50.072;7.036;2023-06-24T01:53:39;13.90;99.90
15426;DHT22;7812;50.072;7.036;2023-06-24T01:56:10;13.90;99.90
15426;DHT22;7812;50.072;7.036;2023-06-24T01:58:36;13.90;99.90
15426;DHT22;7812;50.072;7.036;2023-06-24T02:01:03;13.90;99.90
15426;DHT22;7812;50.072;7.036;2023-06-24T02:03:32;13.90;99.90
15426;DHT22;7812;50.072;7.036;2023-06-24T02:05:59;13.90;99.90
15426;DHT22;7812;50.072;7.036;2023-06-24T02:08:26;13.90;99.90
15426;DHT22;7812;50.072;7.036;2023-06-24T02:10:55;13.90;99.90
15426;DHT22;7812;50.072;7.036;2023-06-24T02:13:22;13.90;99.90
15426;DHT22;7812;50.072;7.036;2023-06-24T02:15:49;13.80;99.90
15426;DHT22;7812;50.072;7.036;2023-06-24T02:18:16;13.70;99.90
15426;DHT22;7812;50.072;7.036;2023-06-24T02:20:43;13.70;99.90
15426;DHT22;7812;50.072;7.036;2023-06-24T02:23:09;13.70;99.90
15426;DHT22;7812;50.072;7.036;2023-06-24T02:25:36;13.60;99.90
15426;DHT22;7812;50.072;7.036;2023-06-24T02:28:06;13.50;99.90
15426;DHT22;7812;50.072;7.036;2023-06-24T02:30:34;13.40;99.90
15426;DHT22;7812;50.072;7.036;2023-06-24T02:33:00;13.50;99.90
15426;DHT22;7812;50.072;7.036;2023-06-24T02:35:25;13.60;99.90
15426;DHT22;7812;50.072;7.036;2023-06-24T02:37:51;13.60;99.90
15426;DHT22;7812;50.072;7.036;2023-06-24T02:40:17;13.60;99.90
15426;DHT22;7812;50.072;7.036;2023-06-24T02:42:42;13.50;99.90
15426;DHT22;7812;50.072;7.036;2023-06-24T02:45:09;13.50;99.90
15426;DHT22;7812;50.072;7.036;2023-06-24T02:47:35;13.40;99.90
15426;DHT22;7812;50.072;7.036;2023-06-24T02:50:03;13.40;99.90
15426;DHT22;7812;50.072;7.036;2023-06-24T02:52:30;13.40;99.90
15426;DHT22;7812;50.072;7.036;2023-06-24T02:54:57;13.40;99.90
15426;DHT22;7812;50.072;7.036;2023-06-24T02:57:23;13.40;99.90
15426;DHT22;7812;50.072;7.036;2023-06-24T02:59:50;13.40;99.90
15426;DHT22;7812;50.072;7.036;2023-06-24T03:02:16;13.30;99.90
15426;DHT22;7812;50.072;7.036;2023-06-24T03:04:43;13.30;99.90
15426;DHT22;7812;50.072;7.036;2023-06-24T03:07:10;13.30;99.90
15426;DHT22;7812;50.072;7.036;2023-06-24T03:09:36;13.20;99.90
15426;DHT22;7812;50.072;7.036;2023-06-24T03:12:03;13.20;99.90
15426;DHT22;7812;50.072;7.036;2023-06-24T03:14:28;13.20;99.90
15426;DHT22;7812;50.072;7.036;2023-06-24T03:16:54;13.20;99.90
15426;DHT22;7812;50.072;7.036;2023-06-24T03:19:20;13.30;99.90
15426;DHT22;7812;50.072;7.036;2023-06-24T03:21:45;13.30;99.90
15426;DHT22;7812;50.072;7.036;2023-06-24T03:24:11;13.30;99.90
15426;DHT22;7812;50.072;7.036;2023-06-24T03:26:40;13.30;99.90
15426;DHT22;7812;50.072;7.036;2023-06-24T03:29:05;13.30;99.90
15426;DHT22;7812;50.072;7.036;2023-06-24T03:31:32;13.20;99.90
15426;DHT22;7812;50.072;7.036;2023-06-24T03:33:58;13.20;99.90
15426;DHT22;7812;50.072;7.036;2023-06-24T03:36:24;13.20;99.90
15426;DHT22;7812;50.072;7.036;2023-06-24T03:38:50;13.20;99.90
15426;DHT22;7812;50.072;7.036;2023-06-24T03:41:16;13.20;99.90
15426;DHT22;7812;50.072;7.036;2023-06-24T03:43:41;13.20;99.90
15426;DHT22;7812;50.072;7.036;2023-06-24T03:46:07;13.20;99.90
15426;DHT22;7812;50.072;7.036;2023-06-24T03:48:33;13.20;99.90
15426;DHT22;7812;50.072;7.036;2023-06-24T03:51:00;13.20;99.90
15426;DHT22;7812;50.072;7.036;2023-06-24T03:53:25;13.20;99.90
15426;DHT22;7812;50.072;7.036;2023-06-24T03:55:51;13.30;99.90
15426;DHT22;7812;50.072;7.036;2023-06-24T03:58:17;13.20;99.90
15426;DHT22;7812;50.072;7.036;2023-06-24T04:00:43;13.20;99.90
15426;DHT22;7812;50.072;7.036;2023-06-24T04:03:10;13.30;99.90
15426;DHT22;7812;50.072;7.036;2023-06-24T04:05:35;13.40;99.90
15426;DHT22;7812;50.072;7.036;2023-06-24T04:08:01;13.50;99.90
15426;DHT22;7812;50.072;7.036;2023-06-24T04:10:31;13.60;99.90
15426;DHT22;7812;50.072;7.036;2023-06-24T04:12:56;13.50;99.90
15426;DHT22;7812;50.072;7.036;2023-06-24T04:15:22;13.50;99.90
15426;DHT22;7812;50.072;7.036;2023-06-24T04:17:48;13.30;99.90
15426;DHT22;7812;50.072;7.036;2023-06-24T04:20:13;13.30;99.90
15426;DHT22;7812;50.072;7.036;2023-06-24T04:22:41;13.40;99.90
15426;DHT22;7812;50.072;7.036;2023-06-24T04:25:08;13.60;99.90
15426;DHT22;7812;50.072;7.036;2023-06-24T04:27:34;13.60;99.90
15426;DHT22;7812;50.072;7.036;2023-06-24T04:30:01;13.60;99.90
15426;DHT22;7812;50.072;7.036;2023-06-24T04:32:26;13.60;99.90
15426;DHT22;7812;50.072;7.036;2023-06-24T04:34:52;13.60;99.90
15426;DHT22;7812;50.072;7.036;2023-06-24T04:37:18;13.70;99.90
15426;DHT22;7812;50.072;7.036;2023-06-24T04:39:44;13.70;99.90
15426;DHT22;7812;50.072;7.036;2023-06-24T04:42:11;13.70;99.90
15426;DHT22;7812;50.072;7.036;2023-06-24T04:44:36;13.70;99.90
15426;DHT22;7812;50.072;7.036;2023-06-24T04:47:02;13.80;99.90
15426;DHT22;7812;50.072;7.036;2023-06-24T04:49:28;13.80;99.90
15426;DHT22;7812;50.072;7.036;2023-06-24T04:51:54;13.90;99.90
15426;DHT22;7812;50.072;7.036;2023-06-24T04:54:20;13.90;99.90
15426;DHT22;7812;50.072;7.036;2023-06-24T04:56:45;13.90;99.90
15426;DHT22;7812;50.072;7.036;2023-06-24T04:59:13;14.10;99.90
15426;DHT22;7812;50.072;7.036;2023-06-24T05:01:39;14.20;99.90
15426;DHT22;7812;50.072;7.036;2023-06-24T05:04:05;14.30;99.90
15426;DHT22;7812;50.072;7.036;2023-06-24T05:06:30;14.50;99.90
15426;DHT22;7812;50.072;7.036;2023-06-24T05:08:56;14.60;99.90
15426;DHT22;7812;50.072;7.036;2023-06-24T05:11:22;14.70;99.90
15426;DHT22;7812;50.072;7.036;2023-06-24T05:13:47;14.90;99.90
15426;DHT22;7812;50.072;7.036;2023-06-24T05:16:13;14.90;99.90
15426;DHT22;7812;50.072;7.036;2023-06-24T05:18:39;14.80;99.90
15426;DHT22;7812;50.072;7.036;2023-06-24T05:21:04;15.10;99.90
15426;DHT22;7812;50.072;7.036;2023-06-24T05:23:30;15.40;99.90
15426;DHT22;7812;50.072;7.036;2023-06-24T05:25:56;15.70;99.90
15426;DHT22;7812;50.072;7.036;2023-06-24T05:28:21;16.00;99.90
15426;DHT22;7812;50.072;7.036;2023-06-24T05:30:47;16.20;99.90
15426;DHT22;7812;50.072;7.036;2023-06-24T05:33:13;16.50;99.90
15426;DHT22;7812;50.072;7.036;2023-06-24T05:35:38;16.60;99.90
15426;DHT22;7812;50.072;7.036;2023-06-24T05:38:06;16.70;99.90
15426;DHT22;7812;50.072;7.036;2023-06-24T05:40:32;16.90;99.90
15426;DHT22;7812;50.072;7.036;2023-06-24T05:42:57;17.10;99.90
15426;DHT22;7812;50.072;7.036;2023-06-24T05:45:23;17.00;99.90
15426;DHT22;7812;50.072;7.036;2023-06-24T05:47:49;17.40;99.90
15426;DHT22;7812;50.072;7.036;2023-06-24T05:50:14;17.70;99.90
15426;DHT22;7812;50.072;7.036;2023-06-24T05:52:40;17.90;99.90
15426;DHT22;7812;50.072;7.036;2023-06-24T05:55:06;18.00;99.90
15426;DHT22;7812;50.072;7.036;2023-06-24T05:57:32;18.30;99.90
15426;DHT22;7812;50.072;7.036;2023-06-24T05:59:58;18.30;99.90
15426;DHT22;7812;50.072;7.036;2023-06-24T06:02:23;18.60;99.90
15426;DHT22;7812;50.072;7.036;2023-06-24T06:04:50;18.90;99.90
15426;DHT22;7812;50.072;7.036;2023-06-24T06:07:16;19.20;99.90
15426;DHT22;7812;50.072;7.036;2023-06-24T06:09:41;19.60;99.90
15426;DHT22;7812;50.072;7.036;2023-06-24T06:12:08;19.80;99.90
15426;DHT22;7812;50.072;7.036;2023-06-24T06:14:33;20.10;99.90
15426;DHT22;7812;50.072;7.036;2023-06-24T06:16:59;20.20;99.90
15426;DHT22;7812;50.072;7.036;2023-06-24T06:19:25;20.20;99.90
15426;DHT22;7812;50.072;7.036;2023-06-24T06:21:51;20.70;99.90
15426;DHT22;7812;50.072;7.036;2023-06-24T06:24:17;21.00;99.90
15426;DHT22;7812;50.072;7.036;2023-06-24T06:26:43;21.50;99.90
15426;DHT22;7812;50.072;7.036;2023-06-24T06:29:12;21.90;99.90
15426;DHT22;7812;50.072;7.036;2023-06-24T06:31:38;21.80;99.90
15426;DHT22;7812;50.072;7.036;2023-06-24T06:34:03;22.60;99.90
15426;DHT22;7812;50.072;7.036;2023-06-24T06:36:29;23.00;99.90
15426;DHT22;7812;50.072;7.036;2023-06-24T06:38:55;23.00;99.90
15426;DHT22;7812;50.072;7.036;2023-06-24T06:41:21;23.60;99.90
15426;DHT22;7812;50.072;7.036;2023-06-24T06:43:51;24.00;99.90
15426;DHT22;7812;50.072;7.036;2023-06-24T06:46:16;24.30;99.90
15426;DHT22;7812;50.072;7.036;2023-06-24T06:48:42;24.00;99.90
15426;DHT22;7812;50.072;7.036;2023-06-24T06:51:08;24.70;99.90
15426;DHT22;7812;50.072;7.036;2023-06-24T06:53:33;25.40;99.90
15426;DHT22;7812;50.072;7.036;2023-06-24T06:55:59;25.10;99.90
15426;DHT22;7812;50.072;7.036;2023-06-24T06:58:25;25.70;99.90
15426;DHT22;7812;50.072;7.036;2023-06-24T07:00:50;26.20;99.90
15426;DHT22;7812;50.072;7.036;2023-06-24T07:03:16;26.50;99.90
15426;DHT22;7812;50.072;7.036;2023-06-24T07:05:42;26.60;99.90
15426;DHT22;7812;50.072;7.036;2023-06-24T07:08:08;27.20;99.90
15426;DHT22;7812;50.072;7.036;2023-06-24T07:10:33;27.90;99.90
15426;DHT22;7812;50.072;7.036;2023-06-24T07:12:59;27.60;99.90
15426;DHT22;7812;50.072;7.036;2023-06-24T07:15:25;27.90;99.90
15426;DHT22;7812;50.072;7.036;2023-06-24T07:17:52;28.50;99.90
15426;DHT22;7812;50.072;7.036;2023-06-24T07:20:19;27.70;99.90
15426;DHT22;7812;50.072;7.036;2023-06-24T07:22:44;27.80;99.90
15426;DHT22;7812;50.072;7.036;2023-06-24T07:25:10;27.90;99.90
15426;DHT22;7812;50.072;7.036;2023-06-24T07:27:35;28.20;99.90
15426;DHT22;7812;50.072;7.036;2023-06-24T07:30:01;28.50;99.90
15426;DHT22;7812;50.072;7.036;2023-06-24T07:32:27;29.00;99.90
15426;DHT22;7812;50.072;7.036;2023-06-24T07:34:52;28.60;99.90
15426;DHT22;7812;50.072;7.036;2023-06-24T07:37:18;29.30;99.90
15426;DHT22;7812;50.072;7.036;2023-06-24T07:39:43;30.00;99.90
15426;DHT22;7812;50.072;7.036;2023-06-24T07:42:09;30.10;99.90
15426;DHT22;7812;50.072;7.036;2023-06-24T07:44:35;30.20;99.90
15426;DHT22;7812;50.072;7.036;2023-06-24T07:47:03;31.50;99.90
15426;DHT22;7812;50.072;7.036;2023-06-24T07:49:29;31.40;99.90
15426;DHT22;7812;50.072;7.036;2023-06-24T07:51:54;31.70;99.90
15426;DHT22;7812;50.072;7.036;2023-06-24T07:54:20;32.00;99.90
15426;DHT22;7812;50.072;7.036;2023-06-24T07:56:45;31.60;99.90
15426;DHT22;7812;50.072;7.036;2023-06-24T07:59:11;31.20;99.90
15426;DHT22;7812;50.072;7.036;2023-06-24T08:01:37;31.70;99.90
15426;DHT22;7812;50.072;7.036;2023-06-24T08:04:02;31.20;99.90
15426;DHT22;7812;50.072;7.036;2023-06-24T08:06:28;32.50;99.90
15426;DHT22;7812;50.072;7.036;2023-06-24T08:08:54;33.50;99.90
15426;DHT22;7812;50.072;7.036;2023-06-24T08:11:19;34.10;99.90
15426;DHT22;7812;50.072;7.036;2023-06-24T08:13:47;33.90;99.90
15426;DHT22;7812;50.072;7.036;2023-06-24T08:16:15;32.30;99.90
15426;DHT22;7812;50.072;7.036;2023-06-24T08:18:41;33.10;99.90
15426;DHT22;7812;50.072;7.036;2023-06-24T08:21:08;34.20;99.90
15426;DHT22;7812;50.072;7.036;2023-06-24T08:23:33;34.60;99.90
15426;DHT22;7812;50.072;7.036;2023-06-24T08:25:59;32.20;99.90
15426;DHT22;7812;50.072;7.036;2023-06-24T08:28:25;30.90;99.90
15426;DHT22;7812;50.072;7.036;2023-06-24T08:30:50;31.20;99.90
15426;DHT22;7812;50.072;7.036;2023-06-24T08:33:16;31.40;99.90
15426;DHT22;7812;50.072;7.036;2023-06-24T08:35:42;30.50;99.90
15426;DHT22;7812;50.072;7.036;2023-06-24T08:38:07;30.20;99.90
15426;DHT22;7812;50.072;7.036;2023-06-24T08:40:33;30.60;99.90
15426;DHT22;7812;50.072;7.036;2023-06-24T08:42:59;31.30;99.90
15426;DHT22;7812;50.072;7.036;2023-06-24T08:45:25;31.80;99.90
15426;DHT22;7812;50.072;7.036;2023-06-24T08:47:50;32.60;99.90
15426;DHT22;7812;50.072;7.036;2023-06-24T08:50:18;33.20;99.90
15426;DHT22;7812;50.072;7.036;2023-06-24T08:52:54;32.30;99.90
15426;DHT22;7812;50.072;7.036;2023-06-24T08:55:22;31.80;99.90
15426;DHT22;7812;50.072;7.036;2023-06-24T08:57:48;32.30;99.90
15426;DHT22;7812;50.072;7.036;2023-06-24T09:00:14;32.60;99.90
15426;DHT22;7812;50.072;7.036;2023-06-24T09:02:40;31.80;99.90
15426;DHT22;7812;50.072;7.036;2023-06-24T09:05:07;32.90;99.90
15426;DHT22;7812;50.072;7.036;2023-06-24T09:07:33;33.00;99.90
15426;DHT22;7812;50.072;7.036;2023-06-24T09:09:59;32.60;99.90
15426;DHT22;7812;50.072;7.036;2023-06-24T09:12:26;32.50;99.90
15426;DHT22;7812;50.072;7.036;2023-06-24T09:14:52;33.50;99.90
15426;DHT22;7812;50.072;7.036;2023-06-24T09:17:18;33.60;99.90
15426;DHT22;7812;50.072;7.036;2023-06-24T09:19:50;33.60;99.90
15426;DHT22;7812;50.072;7.036;2023-06-24T09:22:16;33.40;99.90
15426;DHT22;7812;50.072;7.036;2023-06-24T09:24:46;35.00;99.90
15426;DHT22;7812;50.072;7.036;2023-06-24T09:27:16;35.30;99.90
15426;DHT22;7812;50.072;7.036;2023-06-24T09:29:43;34.80;99.90
15426;DHT22;7812;50.072;7.036;2023-06-24T09:32:09;33.80;99.90
15426;DHT22;7812;50.072;7.036;2023-06-24T09:34:35;33.20;99.90
15426;DHT22;7812;50.072;7.036;2023-06-24T09:37:01;33.10;99.90
15426;DHT22;7812;50.072;7.036;2023-06-24T09:39:27;33.50;99.90
15426;DHT22;7812;50.072;7.036;2023-06-24T09:41:57;34.70;99.90
15426;DHT22;7812;50.072;7.036;2023-06-24T09:44:23;33.70;99.90
15426;DHT22;7812;50.072;7.036;2023-06-24T09:46:49;34.10;99.80
15426;DHT22;7812;50.072;7.036;2023-06-24T09:49:15;33.20;99.80
15426;DHT22;7812;50.072;7.036;2023-06-24T09:51:45;32.50;99.80
15426;DHT22;7812;50.072;7.036;2023-06-24T09:54:13;31.80;99.90
15426;DHT22;7812;50.072;7.036;2023-06-24T09:56:45;32.20;99.70
15426;DHT22;7812;50.072;7.036;2023-06-24T09:59:12;33.20;99.40
15426;DHT22;7812;50.072;7.036;2023-06-24T10:01:44;33.70;99.80
15426;DHT22;7812;50.072;7.036;2023-06-24T10:04:17;34.80;99.10
15426;DHT22;7812;50.072;7.036;2023-06-24T10:06:43;35.20;99.00
15426;DHT22;7812;50.072;7.036;2023-06-24T10:09:09;33.80;98.20
15426;DHT22;7812;50.072;7.036;2023-06-24T10:11:36;31.40;99.70
15426;DHT22;7812;50.072;7.036;2023-06-24T10:14:01;30.10;99.90
15426;DHT22;7812;50.072;7.036;2023-06-24T10:16:27;30.10;99.90
15426;DHT22;7812;50.072;7.036;2023-06-24T10:19:02;29.80;99.90
15426;DHT22;7812;50.072;7.036;2023-06-24T10:21:57;29.70;99.90
15426;DHT22;7812;50.072;7.036;2023-06-24T10:24:32;29.50;99.90
15426;DHT22;7812;50.072;7.036;2023-06-24T10:27:22;29.70;99.90
15426;DHT22;7812;50.072;7.036;2023-06-24T10:29:53;29.60;99.90
15426;DHT22;7812;50.072;7.036;2023-06-24T10:32:22;29.50;99.90
15426;DHT22;7812;50.072;7.036;2023-06-24T10:34:57;28.80;99.90
15426;DHT22;7812;50.072;7.036;2023-06-24T10:37:24;29.90;99.90
15426;DHT22;7812;50.072;7.036;2023-06-24T10:39:54;31.70;99.90
15426;DHT22;7812;50.072;7.036;2023-06-24T10:42:39;34.50;98.40
15426;DHT22;7812;50.072;7.036;2023-06-24T10:47:37;35.50;96.10
15426;DHT22;7812;50.072;7.036;2023-06-24T10:50:08;34.60;95.40
15426;DHT22;7812;50.072;7.036;2023-06-24T10:52:42;33.80;95.70
15426;DHT22;7812;50.072;7.036;2023-06-24T10:55:08;34.20;95.20
15426;DHT22;7812;50.072;7.036;2023-06-24T10:57:34;35.30;94.60
15426;DHT22;7812;50.072;7.036;2023-06-24T11:00:01;36.30;94.00
15426;DHT22;7812;50.072;7.036;2023-06-24T11:02:28;36.80;92.80
15426;DHT22;7812;50.072;7.036;2023-06-24T11:05:01;36.50;93.40
15426;DHT22;7812;50.072;7.036;2023-06-24T11:07:30;36.10;93.50
15426;DHT22;7812;50.072;7.036;2023-06-24T11:12:37;35.80;92.40
15426;DHT22;7812;50.072;7.036;2023-06-24T11:15:07;36.60;92.40
15426;DHT22;7812;50.072;7.036;2023-06-24T11:17:34;37.90;90.70
15426;DHT22;7812;50.072;7.036;2023-06-24T11:20:01;37.60;89.30
15426;DHT22;7812;50.072;7.036;2023-06-24T11:22:27;37.40;88.40
15426;DHT22;7812;50.072;7.036;2023-06-24T11:24:54;37.80;88.80
15426;DHT22;7812;50.072;7.036;2023-06-24T11:27:27;37.60;85.70
15426;DHT22;7812;50.072;7.036;2023-06-24T11:29:54;37.60;85.70
15426;DHT22;7812;50.072;7.036;2023-06-24T11:32:20;37.60;85.40
15426;DHT22;7812;50.072;7.036;2023-06-24T11:34:47;38.00;85.50
15426;DHT22;7812;50.072;7.036;2023-06-24T11:37:16;38.20;85.10
15426;DHT22;7812;50.072;7.036;2023-06-24T11:39:43;38.00;82.80
15426;DHT22;7812;50.072;7.036;2023-06-24T11:42:09;37.80;83.40
15426;DHT22;7812;50.072;7.036;2023-06-24T11:44:35;37.40;83.20
15426;DHT22;7812;50.072;7.036;2023-06-24T11:47:08;35.60;84.10
15426;DHT22;7812;50.072;7.036;2023-06-24T11:52:15;35.30;86.30
15426;DHT22;7812;50.072;7.036;2023-06-24T11:54:41;36.20;83.60
15426;DHT22;7812;50.072;7.036;2023-06-24T11:57:09;35.10;83.60
15426;DHT22;7812;50.072;7.036;2023-06-24T11:59:34;32.90;85.30
15426;DHT22;7812;50.072;7.036;2023-06-24T12:02:00;31.70;89.20
15426;DHT22;7812;50.072;7.036;2023-06-24T12:04:32;31.10;90.00
15426;DHT22;7812;50.072;7.036;2023-06-24T12:06:59;30.40;91.10
15426;DHT22;7812;50.072;7.036;2023-06-24T12:09:25;30.00;91.40
15426;DHT22;7812;50.072;7.036;2023-06-24T12:11:52;30.30;92.00
15426;DHT22;7812;50.072;7.036;2023-06-24T12:14:18;29.80;91.70
15426;DHT22;7812;50.072;7.036;2023-06-24T12:16:44;30.30;92.60
15426;DHT22;7812;50.072;7.036;2023-06-24T12:19:10;30.40;92.80
15426;DHT22;7812;50.072;7.036;2023-06-24T12:21:37;31.00;91.40
15426;DHT22;7812;50.072;7.036;2023-06-24T12:24:04;31.70;92.00
15426;DHT22;7812;50.072;7.036;2023-06-24T12:26:30;31.40;90.90
15426;DHT22;7812;50.072;7.036;2023-06-24T12:28:56;31.10;90.70
15426;DHT22;7812;50.072;7.036;2023-06-24T12:31:23;30.60;91.30
15426;DHT22;7812;50.072;7.036;2023-06-24T12:33:50;29.90;91.50
15426;DHT22;7812;50.072;7.036;2023-06-24T12:36:16;29.80;92.60
15426;DHT22;7812;50.072;7.036;2023-06-24T12:38:42;30.60;92.60
15426;DHT22;7812;50.072;7.036;2023-06-24T12:41:08;31.90;91.90
15426;DHT22;7812;50.072;7.036;2023-06-24T12:43:33;32.80;90.80
15426;DHT22;7812;50.072;7.036;2023-06-24T12:45:59;33.30;89.10
15426;DHT22;7812;50.072;7.036;2023-06-24T12:48:25;33.00;89.10
15426;DHT22;7812;50.072;7.036;2023-06-24T12:50:52;32.40;89.00
15426;DHT22;7812;50.072;7.036;2023-06-24T12:53:21;31.70;90.10
15426;DHT22;7812;50.072;7.036;2023-06-24T12:55:47;31.50;88.30
15426;DHT22;7812;50.072;7.036;2023-06-24T12:58:19;31.10;87.90
15426;DHT22;7812;50.072;7.036;2023-06-24T13:00:45;31.40;87.00
15426;DHT22;7812;50.072;7.036;2023-06-24T13:03:10;31.60;85.90
15426;DHT22;7812;50.072;7.036;2023-06-24T13:05:36;31.20;86.30
15426;DHT22;7812;50.072;7.036;2023-06-24T13:08:02;31.10;86.80
15426;DHT22;7812;50.072;7.036;2023-06-24T13:10:28;30.90;87.90
15426;DHT22;7812;50.072;7.036;2023-06-24T13:12:53;31.30;88.20
15426;DHT22;7812;50.072;7.036;2023-06-24T13:15:19;31.60;86.40
15426;DHT22;7812;50.072;7.036;2023-06-24T13:17:45;31.20;87.10
15426;DHT22;7812;50.072;7.036;2023-06-24T13:20:11;31.40;86.40
15426;DHT22;7812;50.072;7.036;2023-06-24T13:22:36;31.20;86.80
15426;DHT22;7812;50.072;7.036;2023-06-24T13:25:02;31.40;89.20
15426;DHT22;7812;50.072;7.036;2023-06-24T13:27:28;31.40;89.30
15426;DHT22;7812;50.072;7.036;2023-06-24T13:29:54;31.60;88.90
15426;DHT22;7812;50.072;7.036;2023-06-24T13:32:19;31.10;90.00
15426;DHT22;7812;50.072;7.036;2023-06-24T13:34:45;30.50;89.30
15426;DHT22;7812;50.072;7.036;2023-06-24T13:37:11;30.40;90.40
15426;DHT22;7812;50.072;7.036;2023-06-24T13:39:36;30.80;90.90
15426;DHT22;7812;50.072;7.036;2023-06-24T13:42:02;31.10;90.60
15426;DHT22;7812;50.072;7.036;2023-06-24T13:44:28;31.00;90.30
15426;DHT22;7812;50.072;7.036;2023-06-24T13:46:53;30.70;90.10
15426;DHT22;7812;50.072;7.036;2023-06-24T13:49:19;30.50;90.30
15426;DHT22;7812;50.072;7.036;2023-06-24T13:51:45;30.30;90.00
15426;DHT22;7812;50.072;7.036;2023-06-24T13:54:11;30.20;90.20
15426;DHT22;7812;50.072;7.036;2023-06-24T13:56:37;30.00;90.40
15426;DHT22;7812;50.072;7.036;2023-06-24T13:59:02;30.10;90.50
15426;DHT22;7812;50.072;7.036;2023-06-24T14:01:28;30.10;89.40
15426;DHT22;7812;50.072;7.036;2023-06-24T14:03:54;30.10;90.20
15426;DHT22;7812;50.072;7.036;2023-06-24T14:06:22;29.90;90.20
15426;DHT22;7812;50.072;7.036;2023-06-24T14:08:48;29.70;90.30
15426;DHT22;7812;50.072;7.036;2023-06-24T14:11:14;29.60;90.00
15426;DHT22;7812;50.072;7.036;2023-06-24T14:13:40;29.70;89.90
15426;DHT22;7812;50.072;7.036;2023-06-24T14:16:06;29.60;90.90
15426;DHT22;7812;50.072;7.036;2023-06-24T14:18:32;29.60;91.40
15426;DHT22;7812;50.072;7.036;2023-06-24T14:20:59;29.60;90.70
15426;DHT22;7812;50.072;7.036;2023-06-24T14:23:25;29.70;90.90
15426;DHT22;7812;50.072;7.036;2023-06-24T14:25:52;30.20;90.50
15426;DHT22;7812;50.072;7.036;2023-06-24T14:28:17;30.60;90.60
15426;DHT22;7812;50.072;7.036;2023-06-24T14:30:43;30.80;90.00
15426;DHT22;7812;50.072;7.036;2023-06-24T14:33:09;30.40;89.20
15426;DHT22;7812;50.072;7.036;2023-06-24T14:35:36;29.80;89.30
15426;DHT22;7812;50.072;7.036;2023-06-24T14:38:01;30.10;89.30
15426;DHT22;7812;50.072;7.036;2023-06-24T14:40:27;30.30;86.90
15426;DHT22;7812;50.072;7.036;2023-06-24T14:42:53;30.60;87.80
15426;DHT22;7812;50.072;7.036;2023-06-24T14:45:18;30.20;87.20
15426;DHT22;7812;50.072;7.036;2023-06-24T14:47:44;29.90;86.10
15426;DHT22;7812;50.072;7.036;2023-06-24T14:50:10;29.70;87.10
15426;DHT22;7812;50.072;7.036;2023-06-24T14:52:36;29.50;88.30
15426;DHT22;7812;50.072;7.036;2023-06-24T14:55:01;29.70;86.30
15426;DHT22;7812;50.072;7.036;2023-06-24T14:57:27;29.90;86.60
15426;DHT22;7812;50.072;7.036;2023-06-24T14:59:53;30.10;87.70
15426;DHT22;7812;50.072;7.036;2023-06-24T15:02:18;30.10;83.90
15426;DHT22;7812;50.072;7.036;2023-06-24T15:04:44;29.90;86.20
15426;DHT22;7812;50.072;7.036;2023-06-24T15:07:10;29.40;88.00
15426;DHT22;7812;50.072;7.036;2023-06-24T15:09:35;29.40;86.00
15426;DHT22;7812;50.072;7.036;2023-06-24T15:12:02;29.60;86.30
15426;DHT22;7812;50.072;7.036;2023-06-24T15:14:28;29.50;88.20
15426;DHT22;7812;50.072;7.036;2023-06-24T15:16:54;29.50;86.30
15426;DHT22;7812;50.072;7.036;2023-06-24T15:19:23;29.50;85.40
15426;DHT22;7812;50.072;7.036;2023-06-24T15:21:49;29.30;91.20
15426;DHT22;7812;50.072;7.036;2023-06-24T15:24:14;29.10;90.70
15426;DHT22;7812;50.072;7.036;2023-06-24T15:26:40;29.10;91.70
15426;DHT22;7812;50.072;7.036;2023-06-24T15:29:06;29.30;90.70
15426;DHT22;7812;50.072;7.036;2023-06-24T15:31:31;29.30;87.20
15426;DHT22;7812;50.072;7.036;2023-06-24T15:33:57;29.20;87.30
15426;DHT22;7812;50.072;7.036;2023-06-24T15:36:23;29.10;87.30
15426;DHT22;7812;50.072;7.036;2023-06-24T15:38:52;29.00;86.40
15426;DHT22;7812;50.072;7.036;2023-06-24T15:41:18;29.00;87.40
15426;DHT22;7812;50.072;7.036;2023-06-24T15:43:44;28.90;89.20
15426;DHT22;7812;50.072;7.036;2023-06-24T15:46:09;29.00;87.20
15426;DHT22;7812;50.072;7.036;2023-06-24T15:48:35;28.90;87.20
15426;DHT22;7812;50.072;7.036;2023-06-24T15:51:02;29.20;87.50
15426;DHT22;7812;50.072;7.036;2023-06-24T15:53:28;29.40;87.80
15426;DHT22;7812;50.072;7.036;2023-06-24T15:55:54;29.40;87.70
15426;DHT22;7812;50.072;7.036;2023-06-24T15:58:19;29.10;88.70
15426;DHT22;7812;50.072;7.036;2023-06-24T16:00:45;29.00;87.60
15426;DHT22;7812;50.072;7.036;2023-06-24T16:03:11;29.10;87.40
15426;DHT22;7812;50.072;7.036;2023-06-24T16:05:36;29.10;88.20